Pagrindinis puslapis
METAR-TAF:

METAR-TAF

Oro uostai :

Kaiseris, Turkija

platuma: 38-47N, ilguma: 035-29E, Aukštis: 1053 m

Dabartinis oras

Ataskaita buvo paskelbta 40 minutes, ne 13:20 UTC
Vėjas 5 kt iš Šiaurės Vakarų su gūsio iki 15 kt, svyruoja nuo Vakarų ir Šiaurės Rytų
Temperatūra 25°C
Drėgmė 19%
Slėgis 1010 hPa
Matomumas 10 km arba daugiau
nėra debesų žemiau 1500 m ir nėra kamuolinių lietaus debesų

METAR: LTAU 121320Z 32005G15KT 270V050 CAVOK 25/00 Q1010 NOSIG RMK RWY07 VRB05KT

Laikas: 17:00 (14:00 UTC)

Prognozė

Ataskaita buvo paskelbta 3 valandos ir 20 minutes, ne 10:40 UTC
Prognozė galioja nuo 12 metu 12 UTC su 13 metu 12 UTC
Vėjas 2 kt nuo kintamojo kryptimis
Matomumas 10 km arba daugiau
nėra debesų žemiau 1500 m ir nėra kamuolinių lietaus debesų
Laikinai
nuo 12 metu 12 UTC su 12 metu 14 UTC
Vėjas 12 kt iš Vakarų/Šiaurės Vakarų

TAF: LTAU 121040Z 1212/1312 VRB02KT CAVOK TEMPO 1212/1214 30012KT

Orai ataskaitas ir orų prognozės (METAR, TAF).

turimą stotys yra geltonos ir raudonos taškus žemėlapyje.

Perkelti pele per norėdami pamatyti stoties vardą.

Tada spustelėkite, norėdami matyti oro stebėjimo ir prognozės.

Norėdami pakeisti žemėlapį: spustelėkite ant žalios mygtukų su juodo kryžiaus žemyn,; žalią mygtuką su brūkšneliu, jei norite nutolinti; arba žalių rodyklių gretimoms žemėlapius.


METAR-TAF: